createdAt,value
2023-03-02T04:52:59.940Z,16.35
2023-03-02T04:55:27.570Z,17.00
2023-03-02T04:57:54.053Z,16.67
2023-03-02T05:00:23.042Z,16.38
2023-03-02T05:02:49.761Z,17.13
2023-03-02T05:05:23.955Z,18.27
2023-03-02T05:07:51.342Z,15.43
2023-03-02T05:10:19.368Z,12.82
2023-03-02T05:12:55.760Z,13.48
2023-03-02T05:15:27.123Z,14.45
2023-03-02T05:17:55.917Z,14.90
2023-03-02T05:20:27.471Z,14.43
2023-03-02T05:22:55.736Z,15.85
2023-03-02T05:25:26.932Z,14.15
2023-03-02T05:27:53.631Z,11.25
2023-03-02T05:30:22.592Z,13.20
2023-03-02T05:32:49.785Z,13.13
2023-03-02T05:35:19.074Z,18.00
2023-03-02T05:37:45.799Z,12.27
2023-03-02T05:40:15.959Z,14.73
2023-03-02T05:42:43.050Z,14.52
2023-03-02T05:45:21.467Z,12.97
2023-03-02T05:47:48.125Z,13.82
2023-03-02T05:50:14.873Z,17.45
2023-03-02T05:52:41.625Z,14.80
2023-03-02T05:55:08.601Z,14.10
2023-03-02T05:57:35.228Z,13.10
2023-03-02T06:00:05.863Z,15.45
2023-03-02T06:02:32.470Z,14.50
2023-03-02T06:04:58.979Z,16.02
2023-03-02T06:07:27.322Z,15.60
2023-03-02T06:09:53.836Z,15.00
2023-03-02T06:12:20.369Z,13.63
2023-03-02T06:14:47.065Z,18.17
2023-03-02T06:17:13.861Z,13.75
2023-03-02T06:19:40.386Z,15.32
2023-03-02T06:22:06.876Z,15.13
2023-03-02T06:24:33.401Z,16.75
2023-03-02T06:27:00.448Z,17.27
2023-03-02T06:29:27.055Z,12.40
2023-03-02T06:31:55.961Z,14.13
2023-03-02T06:34:22.711Z,13.70
2023-03-02T06:36:51.346Z,14.43
2023-03-02T06:39:17.947Z,14.77
2023-03-02T06:41:45.890Z,14.77
2023-03-02T06:44:13.161Z,13.75
2023-03-02T06:46:40.380Z,12.50
2023-03-02T06:49:06.924Z,14.98
2023-03-02T06:51:33.607Z,14.38
2023-03-02T06:54:00.457Z,14.48
2023-03-02T06:56:30.720Z,11.90
2023-03-02T06:58:57.381Z,16.23
2023-03-02T07:01:26.241Z,15.40
2023-03-02T07:03:57.397Z,13.82
2023-03-02T07:06:24.031Z,18.42
2023-03-02T07:08:50.571Z,17.98
2023-03-02T07:11:17.172Z,17.80
2023-03-02T07:13:43.799Z,20.55
2023-03-02T07:16:14.246Z,21.95
2023-03-02T07:18:41.050Z,22.63
2023-03-02T07:21:08.011Z,22.80
2023-03-02T07:23:37.172Z,24.10
2023-03-02T07:26:08.516Z,21.15
2023-03-02T07:28:39.673Z,20.90
2023-03-02T07:31:09.121Z,21.52
2023-03-02T07:33:37.031Z,24.90
2023-03-02T07:36:04.010Z,19.13
2023-03-02T07:38:30.732Z,24.83
2023-03-02T07:40:59.615Z,19.88
2023-03-02T07:43:27.308Z,24.67
2023-03-02T07:45:53.891Z,19.55
2023-03-02T07:48:23.202Z,20.13
2023-03-02T07:50:52.075Z,21.58
2023-03-02T07:53:18.644Z,19.48
2023-03-02T07:55:45.201Z,19.17
2023-03-02T07:58:14.067Z,17.50
2023-03-02T08:00:42.638Z,16.93
2023-03-02T08:03:09.377Z,18.00
2023-03-02T08:05:38.047Z,16.67
2023-03-02T08:08:09.440Z,18.33
2023-03-02T08:10:38.741Z,18.40
2023-03-02T08:13:05.345Z,13.70
2023-03-02T08:15:34.133Z,10.93
2023-03-02T08:18:05.528Z,15.32
2023-03-02T08:20:32.104Z,10.85
2023-03-02T08:22:58.706Z,13.02
2023-03-02T08:25:25.327Z,12.13
2023-03-02T08:27:52.034Z,11.50
2023-03-02T08:30:19.018Z,13.55
2023-03-02T08:32:45.709Z,10.90
2023-03-02T08:35:12.946Z,12.00
2023-03-02T08:37:39.555Z,13.97
2023-03-02T08:40:06.860Z,12.23
2023-03-02T08:42:33.424Z,14.65
2023-03-02T08:45:00.024Z,13.77
2023-03-02T08:47:26.736Z,16.13
2023-03-02T08:49:56.291Z,14.87
2023-03-02T08:52:22.956Z,16.55
2023-03-02T08:54:54.306Z,13.82
2023-03-02T08:57:21.425Z,12.20
2023-03-02T08:59:48.072Z,16.27
2023-03-02T09:02:14.739Z,19.33
2023-03-02T09:04:41.434Z,16.90
2023-03-02T09:07:08.139Z,18.27
2023-03-02T09:09:34.700Z,16.77
2023-03-02T09:12:01.425Z,15.05
2023-03-02T09:14:28.123Z,13.33
2023-03-02T09:16:54.803Z,13.02
2023-03-02T09:19:21.601Z,15.45
2023-03-02T09:21:48.635Z,14.60
2023-03-02T09:24:15.358Z,14.73
2023-03-02T09:26:41.928Z,15.37
2023-03-02T09:29:08.497Z,14.45
2023-03-02T09:31:36.672Z,13.48
2023-03-02T09:34:07.035Z,15.25
2023-03-02T09:36:38.098Z,13.15
2023-03-02T09:39:09.530Z,15.33
2023-03-02T09:42:32.119Z,14.05
2023-03-02T09:45:17.915Z,13.10
2023-03-02T09:48:00.121Z,13.40
2023-03-02T09:50:34.326Z,15.00
2023-03-02T09:53:25.177Z,16.33
2023-03-02T09:55:57.384Z,15.80
2023-03-02T09:58:25.630Z,15.75
2023-03-02T10:00:54.835Z,13.48
2023-03-02T10:03:24.001Z,14.93
2023-03-02T10:05:55.023Z,15.60
2023-03-02T10:08:25.098Z,16.15
2023-03-02T10:11:09.179Z,20.00
2023-03-02T10:13:49.340Z,15.80
2023-03-02T10:16:41.578Z,15.07
2023-03-02T10:19:20.279Z,13.93
2023-03-02T10:21:49.615Z,15.60
2023-03-02T10:24:37.590Z,14.52
2023-03-02T10:27:28.251Z,15.60
2023-03-02T10:30:07.262Z,15.32
2023-03-02T10:32:38.749Z,19.30
2023-03-02T10:35:44.601Z,14.55
2023-03-02T10:38:18.557Z,16.08
2023-03-02T10:41:02.615Z,15.57
2023-03-02T10:43:36.353Z,12.45
2023-03-02T10:46:11.000Z,14.23
2023-03-02T10:48:56.347Z,14.73
2023-03-02T10:51:34.384Z,14.38
2023-03-02T10:54:14.060Z,15.70
2023-03-02T10:56:49.236Z,15.38
2023-03-02T10:59:33.875Z,13.33
2023-03-02T11:02:09.936Z,14.52
2023-03-02T11:04:39.945Z,13.70
2023-03-02T11:07:17.570Z,13.52
2023-03-02T11:10:07.194Z,14.48
2023-03-02T11:12:36.979Z,12.93
2023-03-02T11:15:23.395Z,13.25
2023-03-02T11:18:15.462Z,12.80
2023-03-02T11:20:44.846Z,9.52
2023-03-02T11:23:43.391Z,10.15
2023-03-02T11:26:23.905Z,12.80
2023-03-02T11:29:00.926Z,12.65
2023-03-02T11:31:43.545Z,12.38
2023-03-02T11:35:02.885Z,12.63
2023-03-02T11:37:40.422Z,13.73
2023-03-02T11:40:23.901Z,11.20
2023-03-02T11:42:53.370Z,12.52
2023-03-02T11:45:27.675Z,11.57
2023-03-02T11:48:03.281Z,13.70
2023-03-02T11:50:32.934Z,12.38
2023-03-02T11:53:02.017Z,11.97
2023-03-02T11:55:30.215Z,13.38
2023-03-02T11:58:02.851Z,12.07
2023-03-02T12:00:36.056Z,13.27
2023-03-02T12:03:14.858Z,12.45
2023-03-02T12:05:45.743Z,14.13
2023-03-02T12:08:15.407Z,14.98
2023-03-02T12:10:55.884Z,16.23
2023-03-02T12:13:29.166Z,12.60
2023-03-02T12:15:58.592Z,14.57
2023-03-02T12:18:25.166Z,15.13
2023-03-02T12:21:20.214Z,12.38
2023-03-02T12:23:49.898Z,11.77
2023-03-02T12:26:36.647Z,12.05
2023-03-02T12:29:09.446Z,14.63
2023-03-02T12:31:47.640Z,13.27
2023-03-02T12:34:45.080Z,13.10
2023-03-02T12:37:19.229Z,13.15
2023-03-02T12:40:23.427Z,13.10
2023-03-02T12:42:59.194Z,10.02
2023-03-02T12:45:41.730Z,11.03
2023-03-02T12:48:28.433Z,12.43
2023-03-02T12:51:02.965Z,13.20
2023-03-02T12:53:29.817Z,12.23
2023-03-02T12:55:56.557Z,12.55
2023-03-02T12:58:28.399Z,9.90
2023-03-02T13:00:58.389Z,11.73
2023-03-02T13:03:26.473Z,11.88
2023-03-02T13:06:03.730Z,12.57
2023-03-02T13:08:30.853Z,11.10
2023-03-02T13:11:08.641Z,11.80
2023-03-02T13:13:43.718Z,11.18
2023-03-02T13:16:23.846Z,12.77
2023-03-02T13:18:56.921Z,12.40
2023-03-02T13:21:35.077Z,15.10
2023-03-02T13:24:01.804Z,11.27
2023-03-02T13:26:33.785Z,12.23
2023-03-02T13:29:02.864Z,14.40
2023-03-02T13:31:29.984Z,13.45
2023-03-02T13:33:57.290Z,12.05
2023-03-02T13:36:28.803Z,12.67
2023-03-02T13:39:02.208Z,13.85
2023-03-02T13:41:34.501Z,12.88
2023-03-02T13:44:17.163Z,11.70
2023-03-02T13:46:46.074Z,11.55
2023-03-02T13:49:14.699Z,12.90
2023-03-02T13:51:44.369Z,12.27
2023-03-02T13:54:23.479Z,12.82
2023-03-02T13:56:51.274Z,12.23
2023-03-02T13:59:19.986Z,12.18
2023-03-02T14:01:46.685Z,12.23
2023-03-02T14:04:14.807Z,14.73
2023-03-02T14:06:41.322Z,15.95
2023-03-02T14:09:10.170Z,14.32
2023-03-02T14:11:39.990Z,11.82
2023-03-02T14:14:07.315Z,12.70
2023-03-02T14:16:37.174Z,12.75
2023-03-02T14:19:03.765Z,11.20
2023-03-02T14:21:30.527Z,11.90
2023-03-02T14:23:58.912Z,12.05
2023-03-02T14:26:43.502Z,12.30
2023-03-02T14:29:31.165Z,12.57
2023-03-02T14:32:06.552Z,12.93
2023-03-02T14:34:35.567Z,10.98
2023-03-02T14:37:07.761Z,11.27
2023-03-02T14:39:41.975Z,15.27
2023-03-02T14:42:13.644Z,13.35
2023-03-02T14:44:41.252Z,11.10
2023-03-02T14:47:10.031Z,16.80
2023-03-02T14:49:37.587Z,13.13
2023-03-02T14:52:18.057Z,10.77
2023-03-02T14:54:47.875Z,11.15
2023-03-02T14:57:20.198Z,11.57
2023-03-02T14:59:47.311Z,12.77
2023-03-02T15:02:25.331Z,10.65
2023-03-02T15:04:56.059Z,12.00
2023-03-02T15:07:24.903Z,11.13
2023-03-02T15:09:51.407Z,10.57
2023-03-02T15:12:20.229Z,12.35
2023-03-02T15:14:46.746Z,11.02
2023-03-02T15:17:13.301Z,11.47
2023-03-02T15:19:39.795Z,10.20
2023-03-02T15:22:06.328Z,13.52
2023-03-02T15:24:33.493Z,9.23
2023-03-02T15:27:00.318Z,10.57
2023-03-02T15:29:26.822Z,11.07
2023-03-02T15:31:53.503Z,10.48
2023-03-02T15:34:20.133Z,11.45
2023-03-02T15:36:46.651Z,9.25
2023-03-02T15:39:16.449Z,10.18
2023-03-02T15:41:43.006Z,13.13
2023-03-02T15:44:23.015Z,11.23
2023-03-02T15:46:50.488Z,11.20
2023-03-02T15:49:22.870Z,9.77
2023-03-02T15:51:51.614Z,13.38
2023-03-02T15:54:18.664Z,11.03
2023-03-02T15:56:45.340Z,11.05
2023-03-02T15:59:12.082Z,11.25
2023-03-02T16:01:38.662Z,13.45
2023-03-02T16:04:05.177Z,11.23
2023-03-02T16:06:34.020Z,11.67
2023-03-02T16:09:00.628Z,11.38
2023-03-02T16:11:27.206Z,12.98
2023-03-02T16:13:53.825Z,12.35
2023-03-02T16:16:21.219Z,12.25
2023-03-02T16:18:55.000Z,10.73
2023-03-02T16:21:22.218Z,12.63
2023-03-02T16:23:48.805Z,17.05
2023-03-02T16:26:17.303Z,12.02
2023-03-02T16:28:43.827Z,12.77
2023-03-02T16:31:13.539Z,12.73
2023-03-02T16:33:40.828Z,12.93
2023-03-02T16:36:08.406Z,13.38
2023-03-02T16:38:36.841Z,13.90
2023-03-02T16:41:04.931Z,13.60
2023-03-02T16:43:31.437Z,15.37
2023-03-02T16:45:58.030Z,12.43
2023-03-02T16:48:24.533Z,13.98
2023-03-02T16:50:56.268Z,15.88
2023-03-02T16:53:23.073Z,17.15
2023-03-02T16:55:50.580Z,16.13
2023-03-02T16:58:17.346Z,14.43
2023-03-02T17:00:43.948Z,11.90
2023-03-02T17:03:10.492Z,14.48
2023-03-02T17:05:37.017Z,15.07
2023-03-02T17:08:05.210Z,12.00
2023-03-02T17:10:31.909Z,15.70
2023-03-02T17:12:58.440Z,15.80
2023-03-02T17:15:24.939Z,21.38
2023-03-02T17:17:51.446Z,18.08
2023-03-02T17:20:20.489Z,23.63
2023-03-02T17:22:47.276Z,21.00
2023-03-02T17:25:14.222Z,23.77
2023-03-02T17:27:40.790Z,20.92
2023-03-02T17:30:12.466Z,25.00
2023-03-02T17:32:39.851Z,20.57
2023-03-02T17:35:08.038Z,26.27
2023-03-02T17:37:34.959Z,25.17
2023-03-02T17:40:01.518Z,25.70
2023-03-02T17:42:28.237Z,22.70
2023-03-02T17:44:54.714Z,24.93
2023-03-02T17:47:21.263Z,28.27
2023-03-02T17:49:47.900Z,29.13
2023-03-02T17:52:17.766Z,26.45
2023-03-02T17:54:44.856Z,27.58
2023-03-02T17:57:12.010Z,22.90
2023-03-02T17:59:38.565Z,23.48
2023-03-02T18:02:05.213Z,24.27
2023-03-02T18:04:31.750Z,22.25
2023-03-02T18:07:01.621Z,23.90
2023-03-02T18:09:28.158Z,21.60
2023-03-02T18:11:54.652Z,23.58
2023-03-02T18:14:21.282Z,22.90
2023-03-02T18:16:47.914Z,22.67
2023-03-02T18:19:14.730Z,26.80
2023-03-02T18:21:42.466Z,25.83
2023-03-02T18:24:09.592Z,25.92
2023-03-02T18:26:36.708Z,24.45
2023-03-02T18:29:03.772Z,25.13
2023-03-02T18:31:31.515Z,24.88
2023-03-02T18:33:59.024Z,28.83
2023-03-02T18:36:25.527Z,26.50
2023-03-02T18:38:53.859Z,26.90
2023-03-02T18:41:21.567Z,28.98
2023-03-02T18:43:49.291Z,29.05
2023-03-02T18:46:24.348Z,29.97
2023-03-02T18:48:52.025Z,25.35
2023-03-02T18:51:19.558Z,26.20
2023-03-02T18:53:48.840Z,26.30
2023-03-02T18:56:17.778Z,30.10
2023-03-02T18:58:44.913Z,26.00
2023-03-02T19:01:11.829Z,25.85
2023-03-02T19:03:38.860Z,26.67
2023-03-02T19:06:07.328Z,26.35
2023-03-02T19:08:35.512Z,30.15
2023-03-02T19:11:02.283Z,22.33
2023-03-02T19:13:31.129Z,24.70
2023-03-02T19:15:57.724Z,29.90
2023-03-02T19:18:25.426Z,27.83
2023-03-02T19:20:54.255Z,24.83
2023-03-02T19:23:21.046Z,21.20
2023-03-02T19:25:47.681Z,26.65
2023-03-02T19:28:14.538Z,30.13
2023-03-02T19:30:41.145Z,24.55
2023-03-02T19:33:09.305Z,25.58
2023-03-02T19:35:37.615Z,26.43
2023-03-02T19:38:05.281Z,22.50
2023-03-02T19:40:37.174Z,24.65
2023-03-02T19:43:04.739Z,21.00
2023-03-02T19:45:34.247Z,27.20
2023-03-02T19:48:01.564Z,27.40
2023-03-02T19:50:28.644Z,25.23
2023-03-02T19:52:55.981Z,26.98
2023-03-02T19:55:24.263Z,24.42
2023-03-02T19:57:59.854Z,23.30
2023-03-02T20:00:30.008Z,23.53
2023-03-02T20:02:57.622Z,24.23
2023-03-02T20:05:26.029Z,24.83
2023-03-02T20:07:52.661Z,26.55
2023-03-02T20:10:27.121Z,25.02
2023-03-02T20:12:53.875Z,24.93
2023-03-02T20:15:28.606Z,25.63
2023-03-02T20:17:55.289Z,28.23
2023-03-02T20:20:22.196Z,30.70
2023-03-02T20:22:49.462Z,25.92
2023-03-02T20:25:17.157Z,27.33
2023-03-02T20:27:43.813Z,27.60
2023-03-02T20:30:14.418Z,26.48
2023-03-02T20:32:41.627Z,23.55
2023-03-02T20:35:08.306Z,27.10
2023-03-02T20:37:34.954Z,28.57
2023-03-02T20:40:02.237Z,26.58
2023-03-02T20:42:31.251Z,26.60
2023-03-02T20:44:59.336Z,23.73
2023-03-02T20:47:26.229Z,29.50
2023-03-02T20:49:52.841Z,27.70
2023-03-02T20:52:19.388Z,26.40
2023-03-02T20:54:45.982Z,33.03
2023-03-02T20:57:15.897Z,28.83
2023-03-02T20:59:45.007Z,30.65
